sensor_id;sensor_type;location;lat;lon;timestamp;pressure;altitude;pressure_sealevel;temperature;humidity
63535;BME280;55128;50.230;18.944;2023-04-22T00:02:21;98334.84;;;6.66;67.46
63535;BME280;55128;50.230;18.944;2023-04-22T00:07:22;98328.75;;;6.64;67.25
63535;BME280;55128;50.230;18.944;2023-04-22T00:12:22;98323.66;;;6.59;66.64
63535;BME280;55128;50.230;18.944;2023-04-22T00:17:23;98329.97;;;6.55;67.07
63535;BME280;55128;50.230;18.944;2023-04-22T00:22:23;98330.16;;;6.49;67.35
63535;BME280;55128;50.230;18.944;2023-04-22T00:27:24;98329.56;;;6.41;68.48
63535;BME280;55128;50.230;18.944;2023-04-22T00:32:24;98338.75;;;6.29;68.64
63535;BME280;55128;50.230;18.944;2023-04-22T00:37:25;98336.25;;;6.25;68.45
63535;BME280;55128;50.230;18.944;2023-04-22T00:42:26;98319.03;;;6.14;68.49
63535;BME280;55128;50.230;18.944;2023-04-22T00:47:27;98324.66;;;6.03;68.38
63535;BME280;55128;50.230;18.944;2023-04-22T00:52:29;98331.09;;;5.93;69.37
63535;BME280;55128;50.230;18.944;2023-04-22T00:57:31;98330.50;;;5.83;69.61
63535;BME280;55128;50.230;18.944;2023-04-22T01:02:32;98335.97;;;5.77;69.74
63535;BME280;55128;50.230;18.944;2023-04-22T01:07:33;98333.34;;;5.77;69.72
63535;BME280;55128;50.230;18.944;2023-04-22T01:12:33;98336.78;;;5.79;69.98
63535;BME280;55128;50.230;18.944;2023-04-22T01:17:34;98332.78;;;5.68;70.50
63535;BME280;55128;50.230;18.944;2023-04-22T01:22:39;98327.84;;;5.57;71.38
63535;BME280;55128;50.230;18.944;2023-04-22T01:27:39;98334.91;;;5.55;71.64
63535;BME280;55128;50.230;18.944;2023-04-22T01:32:40;98329.75;;;5.52;71.51
63535;BME280;55128;50.230;18.944;2023-04-22T01:37:41;98328.25;;;5.43;71.00
63535;BME280;55128;50.230;18.944;2023-04-22T01:42:41;98330.97;;;5.40;70.84
63535;BME280;55128;50.230;18.944;2023-04-22T01:47:42;98335.66;;;5.30;71.38
63535;BME280;55128;50.230;18.944;2023-04-22T01:52:42;98334.28;;;5.17;72.01
63535;BME280;55128;50.230;18.944;2023-04-22T01:57:42;98333.44;;;5.16;71.68
63535;BME280;55128;50.230;18.944;2023-04-22T02:02:43;98326.66;;;5.07;71.55
63535;BME280;55128;50.230;18.944;2023-04-22T02:07:43;98339.22;;;4.98;72.74
63535;BME280;55128;50.230;18.944;2023-04-22T02:12:43;98331.38;;;4.96;72.49
63535;BME280;55128;50.230;18.944;2023-04-22T02:17:44;98335.63;;;5.00;72.79
63535;BME280;55128;50.230;18.944;2023-04-22T02:22:45;98333.84;;;5.01;72.65
63535;BME280;55128;50.230;18.944;2023-04-22T02:27:45;98325.16;;;4.99;72.02
63535;BME280;55128;50.230;18.944;2023-04-22T02:32:46;98319.22;;;4.92;72.89
63535;BME280;55128;50.230;18.944;2023-04-22T02:37:46;98317.72;;;4.82;72.99
63535;BME280;55128;50.230;18.944;2023-04-22T02:42:46;98318.72;;;4.78;72.96
63535;BME280;55128;50.230;18.944;2023-04-22T02:47:47;98325.22;;;4.64;72.82
63535;BME280;55128;50.230;18.944;2023-04-22T02:52:48;98323.84;;;4.51;73.45
63535;BME280;55128;50.230;18.944;2023-04-22T02:57:48;98324.97;;;4.41;73.67
63535;BME280;55128;50.230;18.944;2023-04-22T03:02:48;98324.31;;;4.33;74.05
63535;BME280;55128;50.230;18.944;2023-04-22T03:07:49;98315.84;;;4.21;74.39
63535;BME280;55128;50.230;18.944;2023-04-22T03:12:49;98322.84;;;4.22;74.08
63535;BME280;55128;50.230;18.944;2023-04-22T03:17:50;98328.44;;;4.07;74.58
63535;BME280;55128;50.230;18.944;2023-04-22T03:22:50;98322.34;;;4.06;74.42
63535;BME280;55128;50.230;18.944;2023-04-22T03:27:50;98319.88;;;4.00;74.63
63535;BME280;55128;50.230;18.944;2023-04-22T03:32:51;98329.25;;;4.09;74.59
63535;BME280;55128;50.230;18.944;2023-04-22T03:37:52;98329.25;;;4.09;74.88
63535;BME280;55128;50.230;18.944;2023-04-22T03:42:53;98335.59;;;4.02;74.70
63535;BME280;55128;50.230;18.944;2023-04-22T03:47:53;98330.13;;;4.11;75.45
63535;BME280;55128;50.230;18.944;2023-04-22T03:52:53;98332.78;;;4.09;74.82
63535;BME280;55128;50.230;18.944;2023-04-22T03:57:54;98334.56;;;4.07;74.50
63535;BME280;55128;50.230;18.944;2023-04-22T04:02:54;98332.63;;;4.16;74.42
63535;BME280;55128;50.230;18.944;2023-04-22T04:07:54;98340.44;;;4.19;74.46
63535;BME280;55128;50.230;18.944;2023-04-22T04:12:55;98339.50;;;4.20;74.81
63535;BME280;55128;50.230;18.944;2023-04-22T04:17:56;98334.88;;;4.29;74.93
63535;BME280;55128;50.230;18.944;2023-04-22T04:22:56;98332.22;;;4.31;74.97
63535;BME280;55128;50.230;18.944;2023-04-22T04:27:56;98341.69;;;4.38;74.56
63535;BME280;55128;50.230;18.944;2023-04-22T04:32:57;98336.78;;;4.59;74.10
63535;BME280;55128;50.230;18.944;2023-04-22T04:37:57;98343.19;;;4.81;73.82
63535;BME280;55128;50.230;18.944;2023-04-22T04:42:58;98347.78;;;5.04;73.53
63535;BME280;55128;50.230;18.944;2023-04-22T04:48:01;98356.88;;;5.25;73.85
63535;BME280;55128;50.230;18.944;2023-04-22T04:53:02;98350.16;;;6.55;70.20
63535;BME280;55128;50.230;18.944;2023-04-22T04:58:03;98357.84;;;8.48;63.70
63535;BME280;55128;50.230;18.944;2023-04-22T05:03:03;98352.88;;;10.18;60.00
63535;BME280;55128;50.230;18.944;2023-04-22T05:08:04;98348.41;;;11.40;56.05
63535;BME280;55128;50.230;18.944;2023-04-22T05:13:04;98353.84;;;12.80;53.04
63535;BME280;55128;50.230;18.944;2023-04-22T05:18:04;98357.34;;;13.26;51.84
63535;BME280;55128;50.230;18.944;2023-04-22T05:23:05;98354.56;;;14.26;49.37
63535;BME280;55128;50.230;18.944;2023-04-22T05:28:06;98353.94;;;15.67;46.11
63535;BME280;55128;50.230;18.944;2023-04-22T05:33:06;98358.88;;;16.71;42.97
63535;BME280;55128;50.230;18.944;2023-04-22T05:38:07;98365.59;;;17.93;39.26
63535;BME280;55128;50.230;18.944;2023-04-22T05:43:08;98361.56;;;17.76;40.21
63535;BME280;55128;50.230;18.944;2023-04-22T05:48:08;98361.97;;;19.44;33.09
63535;BME280;55128;50.230;18.944;2023-04-22T05:53:08;98363.97;;;20.04;34.38
63535;BME280;55128;50.230;18.944;2023-04-22T05:58:09;98373.16;;;21.49;29.96
63535;BME280;55128;50.230;18.944;2023-04-22T06:03:09;98372.63;;;21.83;29.38
63535;BME280;55128;50.230;18.944;2023-04-22T06:08:10;98371.47;;;23.22;27.15
63535;BME280;55128;50.230;18.944;2023-04-22T06:13:10;98377.28;;;23.80;27.02
63535;BME280;55128;50.230;18.944;2023-04-22T06:18:11;98373.84;;;23.96;26.10
63535;BME280;55128;50.230;18.944;2023-04-22T06:23:11;98381.41;;;24.69;24.98
63535;BME280;55128;50.230;18.944;2023-04-22T06:28:11;98379.84;;;25.90;23.56
63535;BME280;55128;50.230;18.944;2023-04-22T06:33:12;98380.06;;;25.72;23.68
63535;BME280;55128;50.230;18.944;2023-04-22T06:38:12;98378.63;;;26.09;23.04
63535;BME280;55128;50.230;18.944;2023-04-22T06:43:12;98378.66;;;27.26;21.85
63535;BME280;55128;50.230;18.944;2023-04-22T06:48:13;98382.75;;;26.75;21.78
63535;BME280;55128;50.230;18.944;2023-04-22T06:53:13;98382.47;;;27.54;20.90
63535;BME280;55128;50.230;18.944;2023-04-22T06:58:13;98381.94;;;27.74;20.80
63535;BME280;55128;50.230;18.944;2023-04-22T07:03:14;98382.97;;;28.62;19.68
63535;BME280;55128;50.230;18.944;2023-04-22T07:08:14;98373.22;;;28.75;19.08
63535;BME280;55128;50.230;18.944;2023-04-22T07:13:15;98380.78;;;29.59;18.92
63535;BME280;55128;50.230;18.944;2023-04-22T07:18:15;98390.84;;;30.50;17.69
63535;BME280;55128;50.230;18.944;2023-04-22T07:23:16;98381.91;;;30.34;17.40
63535;BME280;55128;50.230;18.944;2023-04-22T07:28:16;98392.28;;;30.39;17.95
63535;BME280;55128;50.230;18.944;2023-04-22T07:33:17;98386.50;;;32.42;16.15
63535;BME280;55128;50.230;18.944;2023-04-22T07:38:18;98381.69;;;32.31;16.39
63535;BME280;55128;50.230;18.944;2023-04-22T07:43:18;98375.75;;;32.34;15.15
63535;BME280;55128;50.230;18.944;2023-04-22T07:48:19;98383.88;;;32.02;16.51
63535;BME280;55128;50.230;18.944;2023-04-22T07:53:19;98383.41;;;32.77;13.40
63535;BME280;55128;50.230;18.944;2023-04-22T07:58:20;98391.06;;;32.10;14.32
63535;BME280;55128;50.230;18.944;2023-04-22T08:03:21;98381.75;;;32.18;14.13
63535;BME280;55128;50.230;18.944;2023-04-22T08:08:22;98383.56;;;32.89;13.85
63535;BME280;55128;50.230;18.944;2023-04-22T08:13:22;98382.81;;;33.89;12.52
63535;BME280;55128;50.230;18.944;2023-04-22T08:18:23;98380.28;;;32.08;14.11
63535;BME280;55128;50.230;18.944;2023-04-22T08:23:24;98372.34;;;32.39;13.14
63535;BME280;55128;50.230;18.944;2023-04-22T08:28:25;98381.47;;;33.23;11.63
63535;BME280;55128;50.230;18.944;2023-04-22T08:33:25;98401.00;;;31.37;12.28
63535;BME280;55128;50.230;18.944;2023-04-22T08:38:30;98371.56;;;32.77;12.16
63535;BME280;55128;50.230;18.944;2023-04-22T08:43:32;98378.19;;;31.84;11.84
63535;BME280;55128;50.230;18.944;2023-04-22T08:48:34;98380.25;;;33.05;11.42
63535;BME280;55128;50.230;18.944;2023-04-22T08:53:39;98371.19;;;33.11;12.02
63535;BME280;55128;50.230;18.944;2023-04-22T08:58:47;98378.84;;;34.59;10.57
63535;BME280;55128;50.230;18.944;2023-04-22T09:04:18;98372.69;;;35.36;9.99
63535;BME280;55128;50.230;18.944;2023-04-22T09:09:19;98378.19;;;33.64;11.22
63535;BME280;55128;50.230;18.944;2023-04-22T09:14:23;98362.59;;;34.39;11.02
63535;BME280;55128;50.230;18.944;2023-04-22T09:19:24;98366.06;;;34.46;10.87
63535;BME280;55128;50.230;18.944;2023-04-22T09:24:25;98365.06;;;34.77;10.53
63535;BME280;55128;50.230;18.944;2023-04-22T09:29:29;98359.34;;;34.91;10.84
63535;BME280;55128;50.230;18.944;2023-04-22T09:34:30;98347.69;;;34.77;11.10
63535;BME280;55128;50.230;18.944;2023-04-22T09:39:30;98357.91;;;34.39;10.78
63535;BME280;55128;50.230;18.944;2023-04-22T09:44:31;98344.03;;;32.38;13.05
63535;BME280;55128;50.230;18.944;2023-04-22T09:49:36;98346.34;;;31.29;12.70
63535;BME280;55128;50.230;18.944;2023-04-22T09:54:37;98326.34;;;29.42;14.17
63535;BME280;55128;50.230;18.944;2023-04-22T09:59:37;98318.88;;;28.28;15.17
63535;BME280;55128;50.230;18.944;2023-04-22T10:04:37;98312.25;;;27.19;15.80
63535;BME280;55128;50.230;18.944;2023-04-22T10:09:38;98322.53;;;25.11;18.14
63535;BME280;55128;50.230;18.944;2023-04-22T10:14:38;98305.72;;;24.74;18.07
63535;BME280;55128;50.230;18.944;2023-04-22T10:19:39;98299.06;;;23.59;19.66
63535;BME280;55128;50.230;18.944;2023-04-22T10:24:40;98301.03;;;23.48;20.58
63535;BME280;55128;50.230;18.944;2023-04-22T10:29:41;98294.41;;;22.99;20.82
63535;BME280;55128;50.230;18.944;2023-04-22T10:34:46;98289.78;;;22.91;20.81
63535;BME280;55128;50.230;18.944;2023-04-22T10:40:05;98283.88;;;22.69;22.30
63535;BME280;55128;50.230;18.944;2023-04-22T10:45:13;98267.63;;;23.40;22.27
63535;BME280;55128;50.230;18.944;2023-04-22T10:50:20;98272.38;;;22.94;21.98
63535;BME280;55128;50.230;18.944;2023-04-22T10:55:22;98276.25;;;21.73;22.27
63535;BME280;55128;50.230;18.944;2023-04-22T11:00:28;98282.03;;;21.79;22.94
63535;BME280;55128;50.230;18.944;2023-04-22T11:05:28;98280.00;;;22.36;22.37
63535;BME280;55128;50.230;18.944;2023-04-22T11:15:44;98253.59;;;22.30;23.07
63535;BME280;55128;50.230;18.944;2023-04-22T11:20:49;98240.88;;;22.48;22.61
63535;BME280;55128;50.230;18.944;2023-04-22T11:26:02;98246.88;;;22.06;22.79
63535;BME280;55128;50.230;18.944;2023-04-22T11:31:10;98238.50;;;21.54;21.75
63535;BME280;55128;50.230;18.944;2023-04-22T11:36:11;98255.72;;;21.53;21.41
63535;BME280;55128;50.230;18.944;2023-04-22T11:41:20;98248.38;;;21.35;22.06
63535;BME280;55128;50.230;18.944;2023-04-22T11:46:36;98229.63;;;21.89;22.15
63535;BME280;55128;50.230;18.944;2023-04-22T11:52:08;98226.72;;;21.55;21.51
63535;BME280;55128;50.230;18.944;2023-04-22T11:58:05;98231.09;;;21.56;21.95
63535;BME280;55128;50.230;18.944;2023-04-22T12:04:24;98223.34;;;21.33;21.87
63535;BME280;55128;50.230;18.944;2023-04-22T12:10:22;98221.44;;;21.16;21.49
63535;BME280;55128;50.230;18.944;2023-04-22T12:15:41;98218.50;;;21.47;21.94
63535;BME280;55128;50.230;18.944;2023-04-22T12:21:10;98206.00;;;21.46;21.82
63535;BME280;55128;50.230;18.944;2023-04-22T12:26:23;98209.63;;;21.27;20.65
63535;BME280;55128;50.230;18.944;2023-04-22T12:31:30;98210.56;;;21.35;19.96
63535;BME280;55128;50.230;18.944;2023-04-22T12:36:52;98195.88;;;21.76;20.12
63535;BME280;55128;50.230;18.944;2023-04-22T12:42:33;98195.75;;;21.40;20.07
63535;BME280;55128;50.230;18.944;2023-04-22T12:47:35;98201.66;;;21.25;20.00
63535;BME280;55128;50.230;18.944;2023-04-22T12:52:36;98190.50;;;21.48;20.20
63535;BME280;55128;50.230;18.944;2023-04-22T12:57:36;98185.63;;;21.97;20.31
63535;BME280;55128;50.230;18.944;2023-04-22T13:02:37;98180.69;;;22.10;20.22
63535;BME280;55128;50.230;18.944;2023-04-22T13:07:40;98179.69;;;21.10;18.67
63535;BME280;55128;50.230;18.944;2023-04-22T13:12:41;98172.66;;;21.27;17.83
63535;BME280;55128;50.230;18.944;2023-04-22T13:17:43;98177.50;;;21.24;19.01
63535;BME280;55128;50.230;18.944;2023-04-22T13:22:49;98174.09;;;21.59;18.12
63535;BME280;55128;50.230;18.944;2023-04-22T13:27:53;98166.06;;;21.67;18.24
63535;BME280;55128;50.230;18.944;2023-04-22T13:32:57;98162.56;;;21.29;18.14
63535;BME280;55128;50.230;18.944;2023-04-22T13:37:58;98161.00;;;20.99;18.30
63535;BME280;55128;50.230;18.944;2023-04-22T13:54:48;98147.84;;;21.69;18.16
63535;BME280;55128;50.230;18.944;2023-04-22T14:00:34;98139.59;;;21.89;18.34
63535;BME280;55128;50.230;18.944;2023-04-22T14:05:35;98149.38;;;21.54;18.22
63535;BME280;55128;50.230;18.944;2023-04-22T14:10:36;98138.50;;;21.36;18.62
63535;BME280;55128;50.230;18.944;2023-04-22T14:15:37;98136.75;;;21.45;18.60
63535;BME280;55128;50.230;18.944;2023-04-22T14:20:37;98134.47;;;21.50;19.02
63535;BME280;55128;50.230;18.944;2023-04-22T14:25:38;98133.25;;;21.34;18.53
63535;BME280;55128;50.230;18.944;2023-04-22T14:30:38;98129.59;;;21.26;18.36
63535;BME280;55128;50.230;18.944;2023-04-22T14:35:41;98126.19;;;21.24;17.90
63535;BME280;55128;50.230;18.944;2023-04-22T14:57:20;98117.63;;;21.10;18.12
63535;BME280;55128;50.230;18.944;2023-04-22T15:02:20;98124.88;;;21.10;18.13
63535;BME280;55128;50.230;18.944;2023-04-22T15:07:20;98103.81;;;21.13;19.96
63535;BME280;55128;50.230;18.944;2023-04-22T15:12:21;98106.47;;;20.95;20.10
63535;BME280;55128;50.230;18.944;2023-04-22T15:17:23;98109.63;;;20.81;19.48
63535;BME280;55128;50.230;18.944;2023-04-22T15:22:23;98102.09;;;20.85;19.63
63535;BME280;55128;50.230;18.944;2023-04-22T15:27:25;98095.03;;;20.74;20.13
63535;BME280;55128;50.230;18.944;2023-04-22T15:32:26;98102.03;;;20.67;20.00
63535;BME280;55128;50.230;18.944;2023-04-22T15:37:26;98095.16;;;20.82;19.93
63535;BME280;55128;50.230;18.944;2023-04-22T15:42:26;98105.41;;;20.78;21.64
63535;BME280;55128;50.230;18.944;2023-04-22T15:47:27;98101.59;;;20.71;21.65
63535;BME280;55128;50.230;18.944;2023-04-22T15:52:27;98101.88;;;20.68;21.89
63535;BME280;55128;50.230;18.944;2023-04-22T15:57:28;98103.22;;;20.35;22.66
63535;BME280;55128;50.230;18.944;2023-04-22T16:02:34;98108.63;;;20.35;23.07
63535;BME280;55128;50.230;18.944;2023-04-22T16:07:34;98102.47;;;20.52;22.97
63535;BME280;55128;50.230;18.944;2023-04-22T16:12:35;98102.53;;;20.33;22.10
63535;BME280;55128;50.230;18.944;2023-04-22T16:17:36;98093.84;;;20.39;22.86
63535;BME280;55128;50.230;18.944;2023-04-22T16:22:36;98093.31;;;20.06;22.97
63535;BME280;55128;50.230;18.944;2023-04-22T16:27:37;98088.81;;;19.97;23.66
63535;BME280;55128;50.230;18.944;2023-04-22T16:32:37;98092.38;;;19.88;23.77
63535;BME280;55128;50.230;18.944;2023-04-22T16:37:37;98085.84;;;19.80;24.06
63535;BME280;55128;50.230;18.944;2023-04-22T16:42:38;98080.28;;;19.62;24.42
63535;BME280;55128;50.230;18.944;2023-04-22T16:47:38;98085.69;;;19.72;24.58
63535;BME280;55128;50.230;18.944;2023-04-22T16:52:39;98084.81;;;19.52;25.32
63535;BME280;55128;50.230;18.944;2023-04-22T16:57:39;98078.00;;;19.38;25.12
63535;BME280;55128;50.230;18.944;2023-04-22T17:02:39;98077.16;;;19.28;25.50
63535;BME280;55128;50.230;18.944;2023-04-22T17:07:40;98071.44;;;19.12;25.75
63535;BME280;55128;50.230;18.944;2023-04-22T17:12:40;98083.97;;;18.92;25.69
63535;BME280;55128;50.230;18.944;2023-04-22T17:17:41;98082.03;;;18.73;26.13
63535;BME280;55128;50.230;18.944;2023-04-22T17:22:41;98082.75;;;18.44;27.43
63535;BME280;55128;50.230;18.944;2023-04-22T17:27:41;98078.97;;;18.25;28.58
63535;BME280;55128;50.230;18.944;2023-04-22T17:32:42;98074.34;;;17.85;29.31
63535;BME280;55128;50.230;18.944;2023-04-22T17:37:42;98070.53;;;17.56;30.02
63535;BME280;55128;50.230;18.944;2023-04-22T17:42:42;98071.16;;;17.27;31.10
63535;BME280;55128;50.230;18.944;2023-04-22T17:47:43;98080.00;;;16.95;32.40
63535;BME280;55128;50.230;18.944;2023-04-22T17:52:44;98086.06;;;16.63;33.93
63535;BME280;55128;50.230;18.944;2023-04-22T17:57:44;98088.25;;;16.36;33.55
63535;BME280;55128;50.230;18.944;2023-04-22T18:02:45;98090.66;;;16.05;34.02
63535;BME280;55128;50.230;18.944;2023-04-22T18:07:45;98096.53;;;15.86;34.41
63535;BME280;55128;50.230;18.944;2023-04-22T18:12:48;98095.06;;;15.58;35.44
63535;BME280;55128;50.230;18.944;2023-04-22T18:17:49;98099.75;;;15.19;35.65
63535;BME280;55128;50.230;18.944;2023-04-22T18:22:49;98103.75;;;15.00;36.15
63535;BME280;55128;50.230;18.944;2023-04-22T18:27:55;98103.06;;;14.72;36.53
63535;BME280;55128;50.230;18.944;2023-04-22T18:32:56;98111.41;;;14.55;37.94
63535;BME280;55128;50.230;18.944;2023-04-22T18:37:56;98113.97;;;14.31;39.14
63535;BME280;55128;50.230;18.944;2023-04-22T18:42:57;98115.03;;;14.03;41.07
63535;BME280;55128;50.230;18.944;2023-04-22T18:47:57;98129.09;;;13.92;41.48
63535;BME280;55128;50.230;18.944;2023-04-22T18:52:58;98124.81;;;13.89;41.39
63535;BME280;55128;50.230;18.944;2023-04-22T18:57:59;98127.63;;;14.00;39.32
63535;BME280;55128;50.230;18.944;2023-04-22T19:02:59;98127.22;;;14.32;38.25
63535;BME280;55128;50.230;18.944;2023-04-22T19:08:00;98122.41;;;14.25;37.94
63535;BME280;55128;50.230;18.944;2023-04-22T19:13:00;98132.13;;;14.38;37.35
63535;BME280;55128;50.230;18.944;2023-04-22T19:18:01;98130.19;;;14.28;37.67
63535;BME280;55128;50.230;18.944;2023-04-22T19:23:02;98128.25;;;14.30;37.32
63535;BME280;55128;50.230;18.944;2023-04-22T19:28:03;98127.94;;;14.22;37.44
63535;BME280;55128;50.230;18.944;2023-04-22T19:33:03;98123.44;;;14.09;37.84
63535;BME280;55128;50.230;18.944;2023-04-22T19:38:04;98123.63;;;13.80;39.41
63535;BME280;55128;50.230;18.944;2023-04-22T19:43:04;98123.81;;;13.65;40.77
63535;BME280;55128;50.230;18.944;2023-04-22T19:48:05;98124.97;;;13.33;42.13
63535;BME280;55128;50.230;18.944;2023-04-22T19:53:06;98120.13;;;13.11;43.56
63535;BME280;55128;50.230;18.944;2023-04-22T19:58:07;98123.13;;;12.92;44.37
63535;BME280;55128;50.230;18.944;2023-04-22T20:03:08;98111.72;;;12.76;45.39
63535;BME280;55128;50.230;18.944;2023-04-22T20:08:10;98116.13;;;12.62;45.44
63535;BME280;55128;50.230;18.944;2023-04-22T20:13:11;98124.56;;;12.40;45.77
63535;BME280;55128;50.230;18.944;2023-04-22T20:18:11;98116.00;;;12.21;45.99
63535;BME280;55128;50.230;18.944;2023-04-22T20:23:13;98112.94;;;11.98;48.05
63535;BME280;55128;50.230;18.944;2023-04-22T20:28:14;98109.09;;;11.88;48.46
63535;BME280;55128;50.230;18.944;2023-04-22T20:33:14;98116.66;;;11.80;49.27
63535;BME280;55128;50.230;18.944;2023-04-22T20:38:16;98113.84;;;11.67;49.88
63535;BME280;55128;50.230;18.944;2023-04-22T20:43:18;98108.41;;;11.54;51.11
63535;BME280;55128;50.230;18.944;2023-04-22T20:48:18;98106.56;;;11.40;51.15
63535;BME280;55128;50.230;18.944;2023-04-22T20:53:19;98103.06;;;11.24;50.82
63535;BME280;55128;50.230;18.944;2023-04-22T20:58:19;98107.72;;;11.04;49.27
63535;BME280;55128;50.230;18.944;2023-04-22T21:03:20;98101.31;;;10.93;51.14
63535;BME280;55128;50.230;18.944;2023-04-22T21:08:25;98096.41;;;10.85;51.74
63535;BME280;55128;50.230;18.944;2023-04-22T21:13:25;98102.41;;;10.73;53.19
63535;BME280;55128;50.230;18.944;2023-04-22T21:18:30;98097.59;;;10.63;53.19
63535;BME280;55128;50.230;18.944;2023-04-22T21:23:31;98108.69;;;10.54;53.80
63535;BME280;55128;50.230;18.944;2023-04-22T21:28:32;98109.63;;;10.37;55.06
63535;BME280;55128;50.230;18.944;2023-04-22T21:33:32;98110.84;;;10.30;55.02
63535;BME280;55128;50.230;18.944;2023-04-22T21:38:33;98107.91;;;10.19;53.50
63535;BME280;55128;50.230;18.944;2023-04-22T21:43:33;98106.84;;;10.05;54.92
63535;BME280;55128;50.230;18.944;2023-04-22T21:48:34;98109.81;;;9.99;54.36
63535;BME280;55128;50.230;18.944;2023-04-22T21:53:34;98103.34;;;9.87;56.10
63535;BME280;55128;50.230;18.944;2023-04-22T21:58:35;98108.81;;;9.84;56.35
63535;BME280;55128;50.230;18.944;2023-04-22T22:03:35;98108.50;;;9.73;56.27
63535;BME280;55128;50.230;18.944;2023-04-22T22:08:35;98114.19;;;9.65;57.05
63535;BME280;55128;50.230;18.944;2023-04-22T22:13:36;98098.06;;;9.52;57.36
63535;BME280;55128;50.230;18.944;2023-04-22T22:18:36;98095.78;;;9.45;57.73
63535;BME280;55128;50.230;18.944;2023-04-22T22:23:37;98097.97;;;9.37;57.77
63535;BME280;55128;50.230;18.944;2023-04-22T22:28:38;98098.19;;;9.32;57.63
63535;BME280;55128;50.230;18.944;2023-04-22T22:33:38;98099.13;;;9.31;58.71
63535;BME280;55128;50.230;18.944;2023-04-22T22:38:38;98100.19;;;9.27;58.62
63535;BME280;55128;50.230;18.944;2023-04-22T22:43:39;98106.19;;;9.13;59.63
63535;BME280;55128;50.230;18.944;2023-04-22T22:48:39;98104.75;;;9.06;60.29
63535;BME280;55128;50.230;18.944;2023-04-22T22:53:40;98094.59;;;8.97;60.42
63535;BME280;55128;50.230;18.944;2023-04-22T22:58:40;98093.72;;;8.79;61.23
63535;BME280;55128;50.230;18.944;2023-04-22T23:03:41;98101.06;;;8.72;60.92
63535;BME280;55128;50.230;18.944;2023-04-22T23:08:41;98103.06;;;8.67;60.64
63535;BME280;55128;50.230;18.944;2023-04-22T23:13:41;98100.78;;;8.59;61.72
63535;BME280;55128;50.230;18.944;2023-04-22T23:18:42;98101.13;;;8.51;61.15
63535;BME280;55128;50.230;18.944;2023-04-22T23:23:43;98103.34;;;8.42;61.69
63535;BME280;55128;50.230;18.944;2023-04-22T23:28:44;98108.22;;;8.30;62.98
63535;BME280;55128;50.230;18.944;2023-04-22T23:33:48;98109.31;;;8.26;61.86
63535;BME280;55128;50.230;18.944;2023-04-22T23:38:49;98103.56;;;8.16;60.67
63535;BME280;55128;50.230;18.944;2023-04-22T23:43:50;98098.94;;;8.01;62.49
63535;BME280;55128;50.230;18.944;2023-04-22T23:48:50;98099.16;;;7.76;62.59
63535;BME280;55128;50.230;18.944;2023-04-22T23:53:51;98099.06;;;7.79;62.87
63535;BME280;55128;50.230;18.944;2023-04-22T23:58:51;98096.66;;;7.93;63.53
